sensor_id;sensor_type;location;lat;lon;timestamp;P1;durP1;ratioP1;P2;durP2;ratioP2
15982;SDS011;14442;50.196;8.096;2023-01-26T00:00:44;1.00;;;1.00;;
15982;SDS011;14442;50.196;8.096;2023-01-26T00:03:10;1.33;;;1.33;;
15982;SDS011;14442;50.196;8.096;2023-01-26T00:05:37;1.10;;;1.00;;
15982;SDS011;14442;50.196;8.096;2023-01-26T00:08:05;1.10;;;1.03;;
15982;SDS011;14442;50.196;8.096;2023-01-26T00:10:33;0.90;;;0.90;;
15982;SDS011;14442;50.196;8.096;2023-01-26T00:13:01;0.83;;;0.83;;
15982;SDS011;14442;50.196;8.096;2023-01-26T00:15:28;1.13;;;1.03;;
15982;SDS011;14442;50.196;8.096;2023-01-26T00:17:56;1.00;;;1.00;;
15982;SDS011;14442;50.196;8.096;2023-01-26T00:20:23;0.87;;;0.87;;
15982;SDS011;14442;50.196;8.096;2023-01-26T00:22:49;1.10;;;1.00;;
15982;SDS011;14442;50.196;8.096;2023-01-26T00:25:18;1.17;;;1.07;;
15982;SDS011;14442;50.196;8.096;2023-01-26T00:27:44;0.70;;;0.70;;
15982;SDS011;14442;50.196;8.096;2023-01-26T00:30:11;0.70;;;0.70;;
15982;SDS011;14442;50.196;8.096;2023-01-26T00:32:38;0.60;;;0.60;;
15982;SDS011;14442;50.196;8.096;2023-01-26T00:35:05;0.63;;;0.63;;
15982;SDS011;14442;50.196;8.096;2023-01-26T00:37:33;0.60;;;0.60;;
15982;SDS011;14442;50.196;8.096;2023-01-26T00:39:59;0.50;;;0.50;;
15982;SDS011;14442;50.196;8.096;2023-01-26T00:42:27;0.70;;;0.60;;
15982;SDS011;14442;50.196;8.096;2023-01-26T00:44:54;0.43;;;0.43;;
15982;SDS011;14442;50.196;8.096;2023-01-26T00:47:21;0.90;;;0.50;;
15982;SDS011;14442;50.196;8.096;2023-01-26T00:49:47;0.73;;;0.70;;
15982;SDS011;14442;50.196;8.096;2023-01-26T00:52:14;0.43;;;0.43;;
15982;SDS011;14442;50.196;8.096;2023-01-26T00:54:41;0.60;;;0.60;;
15982;SDS011;14442;50.196;8.096;2023-01-26T00:57:08;0.87;;;0.50;;
15982;SDS011;14442;50.196;8.096;2023-01-26T00:59:36;0.40;;;0.40;;
15982;SDS011;14442;50.196;8.096;2023-01-26T01:02:02;0.60;;;0.60;;
15982;SDS011;14442;50.196;8.096;2023-01-26T01:04:29;0.43;;;0.43;;
15982;SDS011;14442;50.196;8.096;2023-01-26T01:06:56;0.50;;;0.50;;
15982;SDS011;14442;50.196;8.096;2023-01-26T01:09:23;0.53;;;0.53;;
15982;SDS011;14442;50.196;8.096;2023-01-26T01:11:50;0.30;;;0.30;;
15982;SDS011;14442;50.196;8.096;2023-01-26T01:14:17;0.50;;;0.50;;
15982;SDS011;14442;50.196;8.096;2023-01-26T01:16:45;0.40;;;0.40;;
15982;SDS011;14442;50.196;8.096;2023-01-26T01:19:12;0.63;;;0.63;;
15982;SDS011;14442;50.196;8.096;2023-01-26T01:21:39;0.40;;;0.40;;
15982;SDS011;14442;50.196;8.096;2023-01-26T01:24:06;0.50;;;0.50;;
15982;SDS011;14442;50.196;8.096;2023-01-26T01:26:33;0.40;;;0.40;;
15982;SDS011;14442;50.196;8.096;2023-01-26T01:29:00;0.50;;;0.50;;
15982;SDS011;14442;50.196;8.096;2023-01-26T01:31:26;0.50;;;0.50;;
15982;SDS011;14442;50.196;8.096;2023-01-26T01:33:55;0.57;;;0.57;;
15982;SDS011;14442;50.196;8.096;2023-01-26T01:36:22;0.50;;;0.50;;
15982;SDS011;14442;50.196;8.096;2023-01-26T01:38:49;0.40;;;0.40;;
15982;SDS011;14442;50.196;8.096;2023-01-26T01:41:17;0.40;;;0.40;;
15982;SDS011;14442;50.196;8.096;2023-01-26T01:43:45;0.47;;;0.47;;
15982;SDS011;14442;50.196;8.096;2023-01-26T01:46:14;0.40;;;0.40;;
15982;SDS011;14442;50.196;8.096;2023-01-26T01:48:48;0.40;;;0.40;;
15982;SDS011;14442;50.196;8.096;2023-01-26T01:51:20;0.40;;;0.40;;
15982;SDS011;14442;50.196;8.096;2023-01-26T01:53:56;0.50;;;0.50;;
15982;SDS011;14442;50.196;8.096;2023-01-26T01:56:28;0.30;;;0.30;;
15982;SDS011;14442;50.196;8.096;2023-01-26T01:58:57;0.30;;;0.30;;
15982;SDS011;14442;50.196;8.096;2023-01-26T02:01:24;0.60;;;0.60;;
15982;SDS011;14442;50.196;8.096;2023-01-26T02:03:53;0.43;;;0.43;;
15982;SDS011;14442;50.196;8.096;2023-01-26T02:06:27;0.50;;;0.50;;
15982;SDS011;14442;50.196;8.096;2023-01-26T02:08:58;0.30;;;0.30;;
15982;SDS011;14442;50.196;8.096;2023-01-26T02:11:26;0.40;;;0.40;;
15982;SDS011;14442;50.196;8.096;2023-01-26T02:13:56;0.43;;;0.40;;
15982;SDS011;14442;50.196;8.096;2023-01-26T02:16:24;0.97;;;0.53;;
15982;SDS011;14442;50.196;8.096;2023-01-26T02:18:51;0.50;;;0.50;;
15982;SDS011;14442;50.196;8.096;2023-01-26T02:21:18;0.50;;;0.50;;
15982;SDS011;14442;50.196;8.096;2023-01-26T02:23:54;0.40;;;0.40;;
15982;SDS011;14442;50.196;8.096;2023-01-26T02:26:32;0.40;;;0.40;;
15982;SDS011;14442;50.196;8.096;2023-01-26T02:29:00;0.30;;;0.30;;
15982;SDS011;14442;50.196;8.096;2023-01-26T02:31:28;0.40;;;0.40;;
15982;SDS011;14442;50.196;8.096;2023-01-26T02:33:55;0.60;;;0.60;;
15982;SDS011;14442;50.196;8.096;2023-01-26T02:36:23;0.40;;;0.40;;
15982;SDS011;14442;50.196;8.096;2023-01-26T02:38:52;0.43;;;0.43;;
15982;SDS011;14442;50.196;8.096;2023-01-26T02:41:25;0.37;;;0.37;;
15982;SDS011;14442;50.196;8.096;2023-01-26T02:44:12;0.50;;;0.50;;
15982;SDS011;14442;50.196;8.096;2023-01-26T02:46:40;0.40;;;0.40;;
15982;SDS011;14442;50.196;8.096;2023-01-26T02:49:06;0.30;;;0.30;;
15982;SDS011;14442;50.196;8.096;2023-01-26T02:51:51;0.50;;;0.50;;
15982;SDS011;14442;50.196;8.096;2023-01-26T02:54:17;0.40;;;0.40;;
15982;SDS011;14442;50.196;8.096;2023-01-26T02:57:02;0.40;;;0.40;;
15982;SDS011;14442;50.196;8.096;2023-01-26T02:59:30;0.40;;;0.40;;
15982;SDS011;14442;50.196;8.096;2023-01-26T03:01:56;0.50;;;0.50;;
15982;SDS011;14442;50.196;8.096;2023-01-26T03:04:24;0.50;;;0.50;;
15982;SDS011;14442;50.196;8.096;2023-01-26T03:06:51;0.40;;;0.40;;
15982;SDS011;14442;50.196;8.096;2023-01-26T03:09:17;0.40;;;0.40;;
15982;SDS011;14442;50.196;8.096;2023-01-26T03:11:44;0.40;;;0.40;;
15982;SDS011;14442;50.196;8.096;2023-01-26T03:14:11;0.60;;;0.60;;
15982;SDS011;14442;50.196;8.096;2023-01-26T03:16:40;0.40;;;0.40;;
15982;SDS011;14442;50.196;8.096;2023-01-26T03:19:08;0.33;;;0.33;;
15982;SDS011;14442;50.196;8.096;2023-01-26T03:21:54;0.37;;;0.37;;
15982;SDS011;14442;50.196;8.096;2023-01-26T03:24:38;0.40;;;0.40;;
15982;SDS011;14442;50.196;8.096;2023-01-26T03:27:22;0.50;;;0.50;;
15982;SDS011;14442;50.196;8.096;2023-01-26T03:29:51;0.53;;;0.53;;
15982;SDS011;14442;50.196;8.096;2023-01-26T03:32:20;0.47;;;0.47;;
15982;SDS011;14442;50.196;8.096;2023-01-26T03:34:47;0.50;;;0.50;;
15982;SDS011;14442;50.196;8.096;2023-01-26T03:37:13;0.53;;;0.50;;
15982;SDS011;14442;50.196;8.096;2023-01-26T03:39:40;0.60;;;0.60;;
15982;SDS011;14442;50.196;8.096;2023-01-26T03:42:24;0.50;;;0.50;;
15982;SDS011;14442;50.196;8.096;2023-01-26T03:45:08;2.00;;;0.50;;
15982;SDS011;14442;50.196;8.096;2023-01-26T03:48:02;1.40;;;0.60;;
15982;SDS011;14442;50.196;8.096;2023-01-26T03:50:47;0.73;;;0.73;;
15982;SDS011;14442;50.196;8.096;2023-01-26T03:53:32;0.50;;;0.50;;
15982;SDS011;14442;50.196;8.096;2023-01-26T03:56:16;0.80;;;0.80;;
15982;SDS011;14442;50.196;8.096;2023-01-26T03:58:48;0.70;;;0.70;;
15982;SDS011;14442;50.196;8.096;2023-01-26T04:01:16;0.80;;;0.80;;
15982;SDS011;14442;50.196;8.096;2023-01-26T04:03:53;0.50;;;0.50;;
15982;SDS011;14442;50.196;8.096;2023-01-26T04:06:39;0.77;;;0.77;;
15982;SDS011;14442;50.196;8.096;2023-01-26T04:09:24;0.60;;;0.60;;
15982;SDS011;14442;50.196;8.096;2023-01-26T04:11:51;0.70;;;0.70;;
15982;SDS011;14442;50.196;8.096;2023-01-26T04:14:18;0.80;;;0.80;;
15982;SDS011;14442;50.196;8.096;2023-01-26T04:17:03;0.90;;;0.90;;
15982;SDS011;14442;50.196;8.096;2023-01-26T04:19:49;0.60;;;0.60;;
15982;SDS011;14442;50.196;8.096;2023-01-26T04:22:34;1.00;;;0.83;;
15982;SDS011;14442;50.196;8.096;2023-01-26T04:25:04;0.70;;;0.70;;
15982;SDS011;14442;50.196;8.096;2023-01-26T04:27:32;0.83;;;0.70;;
15982;SDS011;14442;50.196;8.096;2023-01-26T04:29:59;0.80;;;0.80;;
15982;SDS011;14442;50.196;8.096;2023-01-26T04:32:25;0.77;;;0.77;;
15982;SDS011;14442;50.196;8.096;2023-01-26T04:34:53;0.87;;;0.87;;
15982;SDS011;14442;50.196;8.096;2023-01-26T04:37:20;0.67;;;0.67;;
15982;SDS011;14442;50.196;8.096;2023-01-26T04:39:47;0.70;;;0.70;;
15982;SDS011;14442;50.196;8.096;2023-01-26T04:42:13;0.80;;;0.80;;
15982;SDS011;14442;50.196;8.096;2023-01-26T04:44:40;1.00;;;1.00;;
15982;SDS011;14442;50.196;8.096;2023-01-26T04:47:07;0.70;;;0.70;;
15982;SDS011;14442;50.196;8.096;2023-01-26T04:49:33;0.70;;;0.70;;
15982;SDS011;14442;50.196;8.096;2023-01-26T04:52:01;0.90;;;0.90;;
15982;SDS011;14442;50.196;8.096;2023-01-26T04:54:28;0.67;;;0.67;;
15982;SDS011;14442;50.196;8.096;2023-01-26T04:56:55;0.60;;;0.60;;
15982;SDS011;14442;50.196;8.096;2023-01-26T04:59:21;1.60;;;0.70;;
15982;SDS011;14442;50.196;8.096;2023-01-26T05:01:48;0.60;;;0.60;;
15982;SDS011;14442;50.196;8.096;2023-01-26T05:04:15;0.60;;;0.60;;
15982;SDS011;14442;50.196;8.096;2023-01-26T05:06:42;0.80;;;0.80;;
15982;SDS011;14442;50.196;8.096;2023-01-26T05:09:10;0.80;;;0.80;;
15982;SDS011;14442;50.196;8.096;2023-01-26T05:11:36;0.60;;;0.60;;
15982;SDS011;14442;50.196;8.096;2023-01-26T05:14:03;0.50;;;0.50;;
15982;SDS011;14442;50.196;8.096;2023-01-26T05:16:30;0.50;;;0.50;;
15982;SDS011;14442;50.196;8.096;2023-01-26T05:18:56;0.80;;;0.80;;
15982;SDS011;14442;50.196;8.096;2023-01-26T05:21:23;0.83;;;0.83;;
15982;SDS011;14442;50.196;8.096;2023-01-26T05:23:51;0.90;;;0.90;;
15982;SDS011;14442;50.196;8.096;2023-01-26T05:26:19;0.93;;;0.93;;
15982;SDS011;14442;50.196;8.096;2023-01-26T05:28:46;0.70;;;0.70;;
15982;SDS011;14442;50.196;8.096;2023-01-26T05:31:13;0.80;;;0.80;;
15982;SDS011;14442;50.196;8.096;2023-01-26T05:33:39;0.80;;;0.80;;
15982;SDS011;14442;50.196;8.096;2023-01-26T05:36:06;0.80;;;0.80;;
15982;SDS011;14442;50.196;8.096;2023-01-26T05:38:33;0.83;;;0.83;;
15982;SDS011;14442;50.196;8.096;2023-01-26T05:41:00;0.77;;;0.77;;
15982;SDS011;14442;50.196;8.096;2023-01-26T05:43:28;1.00;;;1.00;;
15982;SDS011;14442;50.196;8.096;2023-01-26T05:45:55;0.87;;;0.87;;
15982;SDS011;14442;50.196;8.096;2023-01-26T05:48:22;1.00;;;1.00;;
15982;SDS011;14442;50.196;8.096;2023-01-26T05:50:48;1.43;;;1.33;;
15982;SDS011;14442;50.196;8.096;2023-01-26T05:53:15;1.07;;;1.03;;
15982;SDS011;14442;50.196;8.096;2023-01-26T05:55:43;1.03;;;1.03;;
15982;SDS011;14442;50.196;8.096;2023-01-26T05:58:10;1.50;;;1.40;;
15982;SDS011;14442;50.196;8.096;2023-01-26T06:00:38;1.10;;;1.10;;
15982;SDS011;14442;50.196;8.096;2023-01-26T06:03:04;1.40;;;1.30;;
15982;SDS011;14442;50.196;8.096;2023-01-26T06:05:31;1.37;;;1.37;;
15982;SDS011;14442;50.196;8.096;2023-01-26T06:07:58;1.70;;;1.13;;
15982;SDS011;14442;50.196;8.096;2023-01-26T06:10:24;1.30;;;1.30;;
15982;SDS011;14442;50.196;8.096;2023-01-26T06:12:51;1.50;;;1.40;;
15982;SDS011;14442;50.196;8.096;2023-01-26T06:15:18;2.00;;;1.90;;
15982;SDS011;14442;50.196;8.096;2023-01-26T06:17:45;2.70;;;1.40;;
15982;SDS011;14442;50.196;8.096;2023-01-26T06:20:12;2.20;;;1.47;;
15982;SDS011;14442;50.196;8.096;2023-01-26T06:22:39;1.70;;;1.60;;
15982;SDS011;14442;50.196;8.096;2023-01-26T06:25:06;2.53;;;2.33;;
15982;SDS011;14442;50.196;8.096;2023-01-26T06:27:33;2.53;;;2.33;;
15982;SDS011;14442;50.196;8.096;2023-01-26T06:30:00;2.17;;;1.97;;
15982;SDS011;14442;50.196;8.096;2023-01-26T06:32:27;2.67;;;2.47;;
15982;SDS011;14442;50.196;8.096;2023-01-26T06:34:56;3.63;;;2.97;;
15982;SDS011;14442;50.196;8.096;2023-01-26T06:37:22;3.27;;;3.03;;
15982;SDS011;14442;50.196;8.096;2023-01-26T06:39:49;3.60;;;3.30;;
15982;SDS011;14442;50.196;8.096;2023-01-26T06:42:16;3.67;;;3.37;;
15982;SDS011;14442;50.196;8.096;2023-01-26T06:44:42;4.80;;;3.67;;
15982;SDS011;14442;50.196;8.096;2023-01-26T06:47:09;3.70;;;3.40;;
15982;SDS011;14442;50.196;8.096;2023-01-26T06:49:37;4.10;;;3.80;;
15982;SDS011;14442;50.196;8.096;2023-01-26T06:52:05;3.77;;;3.47;;
15982;SDS011;14442;50.196;8.096;2023-01-26T06:54:56;4.10;;;3.80;;
15982;SDS011;14442;50.196;8.096;2023-01-26T06:57:25;4.23;;;3.83;;
15982;SDS011;14442;50.196;8.096;2023-01-26T06:59:51;3.73;;;3.43;;
15982;SDS011;14442;50.196;8.096;2023-01-26T07:02:20;4.33;;;4.00;;
15982;SDS011;14442;50.196;8.096;2023-01-26T07:04:48;4.03;;;3.73;;
15982;SDS011;14442;50.196;8.096;2023-01-26T07:07:16;4.60;;;4.20;;
15982;SDS011;14442;50.196;8.096;2023-01-26T07:09:43;4.33;;;4.03;;
15982;SDS011;14442;50.196;8.096;2023-01-26T07:12:09;4.60;;;4.20;;
15982;SDS011;14442;50.196;8.096;2023-01-26T07:14:36;3.80;;;3.50;;
15982;SDS011;14442;50.196;8.096;2023-01-26T07:17:03;4.10;;;3.70;;
15982;SDS011;14442;50.196;8.096;2023-01-26T07:19:29;4.00;;;3.70;;
15982;SDS011;14442;50.196;8.096;2023-01-26T07:21:57;4.70;;;4.07;;
15982;SDS011;14442;50.196;8.096;2023-01-26T07:24:25;4.07;;;3.73;;
15982;SDS011;14442;50.196;8.096;2023-01-26T07:26:52;4.37;;;3.80;;
15982;SDS011;14442;50.196;8.096;2023-01-26T07:29:19;5.10;;;4.67;;
15982;SDS011;14442;50.196;8.096;2023-01-26T07:31:45;5.03;;;3.77;;
15982;SDS011;14442;50.196;8.096;2023-01-26T07:34:12;3.90;;;3.60;;
15982;SDS011;14442;50.196;8.096;2023-01-26T07:36:39;3.83;;;3.53;;
15982;SDS011;14442;50.196;8.096;2023-01-26T07:39:06;4.50;;;4.10;;
15982;SDS011;14442;50.196;8.096;2023-01-26T07:41:34;4.33;;;3.80;;
15982;SDS011;14442;50.196;8.096;2023-01-26T07:44:01;4.13;;;3.73;;
15982;SDS011;14442;50.196;8.096;2023-01-26T07:46:28;3.57;;;3.27;;
15982;SDS011;14442;50.196;8.096;2023-01-26T07:48:55;3.70;;;3.40;;
15982;SDS011;14442;50.196;8.096;2023-01-26T07:51:22;3.40;;;3.10;;
15982;SDS011;14442;50.196;8.096;2023-01-26T07:53:49;3.63;;;3.33;;
15982;SDS011;14442;50.196;8.096;2023-01-26T07:56:16;4.13;;;3.77;;
15982;SDS011;14442;50.196;8.096;2023-01-26T07:58:48;3.70;;;3.40;;
15982;SDS011;14442;50.196;8.096;2023-01-26T08:01:15;3.60;;;3.30;;
15982;SDS011;14442;50.196;8.096;2023-01-26T08:03:43;4.13;;;3.73;;
15982;SDS011;14442;50.196;8.096;2023-01-26T08:06:10;3.50;;;3.20;;
15982;SDS011;14442;50.196;8.096;2023-01-26T08:08:38;3.60;;;3.30;;
15982;SDS011;14442;50.196;8.096;2023-01-26T08:11:06;3.30;;;3.00;;
15982;SDS011;14442;50.196;8.096;2023-01-26T08:13:33;3.83;;;3.53;;
15982;SDS011;14442;50.196;8.096;2023-01-26T08:16:01;3.37;;;3.07;;
15982;SDS011;14442;50.196;8.096;2023-01-26T08:18:29;4.07;;;3.67;;
15982;SDS011;14442;50.196;8.096;2023-01-26T08:20:57;4.00;;;3.60;;
15982;SDS011;14442;50.196;8.096;2023-01-26T08:23:24;3.23;;;3.03;;
15982;SDS011;14442;50.196;8.096;2023-01-26T08:25:51;3.50;;;3.30;;
15982;SDS011;14442;50.196;8.096;2023-01-26T08:28:18;4.10;;;3.70;;
15982;SDS011;14442;50.196;8.096;2023-01-26T08:30:44;3.83;;;3.53;;
15982;SDS011;14442;50.196;8.096;2023-01-26T08:33:12;3.47;;;3.27;;
15982;SDS011;14442;50.196;8.096;2023-01-26T08:35:39;4.20;;;3.90;;
15982;SDS011;14442;50.196;8.096;2023-01-26T08:38:06;4.07;;;3.77;;
15982;SDS011;14442;50.196;8.096;2023-01-26T08:40:32;3.73;;;3.43;;
15982;SDS011;14442;50.196;8.096;2023-01-26T08:42:59;3.43;;;3.13;;
15982;SDS011;14442;50.196;8.096;2023-01-26T08:45:27;3.30;;;3.10;;
15982;SDS011;14442;50.196;8.096;2023-01-26T08:47:54;3.93;;;3.63;;
15982;SDS011;14442;50.196;8.096;2023-01-26T08:50:22;4.73;;;3.90;;
15982;SDS011;14442;50.196;8.096;2023-01-26T08:52:49;3.73;;;3.43;;
15982;SDS011;14442;50.196;8.096;2023-01-26T08:55:16;4.20;;;3.80;;
15982;SDS011;14442;50.196;8.096;2023-01-26T08:57:42;3.93;;;3.63;;
15982;SDS011;14442;50.196;8.096;2023-01-26T09:00:11;4.27;;;3.20;;
15982;SDS011;14442;50.196;8.096;2023-01-26T09:02:39;3.93;;;3.63;;
15982;SDS011;14442;50.196;8.096;2023-01-26T09:05:06;4.17;;;3.27;;
15982;SDS011;14442;50.196;8.096;2023-01-26T09:07:35;3.40;;;3.10;;
15982;SDS011;14442;50.196;8.096;2023-01-26T09:10:02;3.97;;;3.60;;
15982;SDS011;14442;50.196;8.096;2023-01-26T09:12:29;3.80;;;3.50;;
15982;SDS011;14442;50.196;8.096;2023-01-26T09:14:56;3.53;;;3.23;;
15982;SDS011;14442;50.196;8.096;2023-01-26T09:17:22;3.60;;;3.30;;
15982;SDS011;14442;50.196;8.096;2023-01-26T09:19:49;3.63;;;3.43;;
15982;SDS011;14442;50.196;8.096;2023-01-26T09:22:15;4.10;;;3.80;;
15982;SDS011;14442;50.196;8.096;2023-01-26T09:24:43;3.60;;;3.30;;
15982;SDS011;14442;50.196;8.096;2023-01-26T09:27:10;4.27;;;3.87;;
15982;SDS011;14442;50.196;8.096;2023-01-26T09:29:37;3.70;;;3.40;;
15982;SDS011;14442;50.196;8.096;2023-01-26T09:32:04;3.90;;;3.60;;
15982;SDS011;14442;50.196;8.096;2023-01-26T09:34:31;3.83;;;3.53;;
15982;SDS011;14442;50.196;8.096;2023-01-26T09:36:57;3.70;;;3.40;;
15982;SDS011;14442;50.196;8.096;2023-01-26T09:39:24;3.83;;;3.53;;
15982;SDS011;14442;50.196;8.096;2023-01-26T09:41:57;3.67;;;3.37;;
15982;SDS011;14442;50.196;8.096;2023-01-26T09:44:36;3.37;;;3.17;;
15982;SDS011;14442;50.196;8.096;2023-01-26T09:47:12;4.07;;;3.77;;
15982;SDS011;14442;50.196;8.096;2023-01-26T09:49:45;3.47;;;3.17;;
15982;SDS011;14442;50.196;8.096;2023-01-26T09:52:17;3.73;;;3.43;;
15982;SDS011;14442;50.196;8.096;2023-01-26T09:54:51;4.50;;;4.10;;
15982;SDS011;14442;50.196;8.096;2023-01-26T09:57:22;3.87;;;3.57;;
15982;SDS011;14442;50.196;8.096;2023-01-26T09:59:57;6.03;;;3.47;;
15982;SDS011;14442;50.196;8.096;2023-01-26T10:02:32;4.40;;;4.00;;
15982;SDS011;14442;50.196;8.096;2023-01-26T10:05:12;4.37;;;3.97;;
15982;SDS011;14442;50.196;8.096;2023-01-26T10:07:43;4.17;;;3.77;;
15982;SDS011;14442;50.196;8.096;2023-01-26T10:10:13;4.90;;;4.40;;
15982;SDS011;14442;50.196;8.096;2023-01-26T10:12:46;7.33;;;5.00;;
15982;SDS011;14442;50.196;8.096;2023-01-26T10:15:18;6.13;;;5.30;;
15982;SDS011;14442;50.196;8.096;2023-01-26T10:17:53;9.47;;;6.80;;
15982;SDS011;14442;50.196;8.096;2023-01-26T10:20:23;11.07;;;7.50;;
15982;SDS011;14442;50.196;8.096;2023-01-26T10:22:55;11.23;;;7.07;;
15982;SDS011;14442;50.196;8.096;2023-01-26T10:25:28;11.20;;;6.87;;
15982;SDS011;14442;50.196;8.096;2023-01-26T10:27:59;11.93;;;7.43;;
15982;SDS011;14442;50.196;8.096;2023-01-26T10:30:27;10.97;;;6.70;;
15982;SDS011;14442;50.196;8.096;2023-01-26T10:32:54;12.00;;;7.03;;
15982;SDS011;14442;50.196;8.096;2023-01-26T10:35:22;14.03;;;7.00;;
15982;SDS011;14442;50.196;8.096;2023-01-26T10:37:50;13.97;;;6.17;;
15982;SDS011;14442;50.196;8.096;2023-01-26T10:40:17;17.67;;;7.27;;
15982;SDS011;14442;50.196;8.096;2023-01-26T10:42:52;14.63;;;6.53;;
15982;SDS011;14442;50.196;8.096;2023-01-26T10:45:26;15.23;;;6.20;;
15982;SDS011;14442;50.196;8.096;2023-01-26T10:48:01;12.60;;;6.03;;
15982;SDS011;14442;50.196;8.096;2023-01-26T10:50:29;12.73;;;6.03;;
15982;SDS011;14442;50.196;8.096;2023-01-26T10:52:57;11.87;;;5.13;;
15982;SDS011;14442;50.196;8.096;2023-01-26T10:55:25;14.13;;;5.07;;
15982;SDS011;14442;50.196;8.096;2023-01-26T10:57:52;13.90;;;5.07;;
15982;SDS011;14442;50.196;8.096;2023-01-26T11:00:21;12.53;;;5.30;;
15982;SDS011;14442;50.196;8.096;2023-01-26T11:02:52;8.70;;;4.33;;
15982;SDS011;14442;50.196;8.096;2023-01-26T11:05:20;10.67;;;4.80;;
15982;SDS011;14442;50.196;8.096;2023-01-26T11:07:51;9.73;;;4.23;;
15982;SDS011;14442;50.196;8.096;2023-01-26T11:10:24;9.40;;;4.07;;
15982;SDS011;14442;50.196;8.096;2023-01-26T11:13:06;14.13;;;3.87;;
15982;SDS011;14442;50.196;8.096;2023-01-26T11:15:37;12.20;;;3.67;;
15982;SDS011;14442;50.196;8.096;2023-01-26T11:18:10;7.63;;;3.43;;
15982;SDS011;14442;50.196;8.096;2023-01-26T11:20:47;8.73;;;3.20;;
15982;SDS011;14442;50.196;8.096;2023-01-26T11:23:21;15.47;;;3.60;;
15982;SDS011;14442;50.196;8.096;2023-01-26T11:26:05;11.57;;;4.57;;
15982;SDS011;14442;50.196;8.096;2023-01-26T11:28:45;9.43;;;3.60;;
15982;SDS011;14442;50.196;8.096;2023-01-26T11:31:24;11.73;;;3.50;;
15982;SDS011;14442;50.196;8.096;2023-01-26T11:34:05;7.47;;;2.63;;
15982;SDS011;14442;50.196;8.096;2023-01-26T11:36:43;10.43;;;3.73;;
15982;SDS011;14442;50.196;8.096;2023-01-26T11:39:18;11.67;;;3.57;;
15982;SDS011;14442;50.196;8.096;2023-01-26T11:44:45;8.37;;;3.53;;
15982;SDS011;14442;50.196;8.096;2023-01-26T11:47:25;6.93;;;3.30;;
15982;SDS011;14442;50.196;8.096;2023-01-26T11:50:17;7.00;;;3.47;;
15982;SDS011;14442;50.196;8.096;2023-01-26T11:55:53;7.37;;;2.83;;
15982;SDS011;14442;50.196;8.096;2023-01-26T11:58:30;8.20;;;3.40;;
15982;SDS011;14442;50.196;8.096;2023-01-26T12:01:00;5.33;;;2.83;;
15982;SDS011;14442;50.196;8.096;2023-01-26T12:03:32;7.77;;;2.70;;
15982;SDS011;14442;50.196;8.096;2023-01-26T12:06:06;3.60;;;2.37;;
15982;SDS011;14442;50.196;8.096;2023-01-26T12:08:39;3.13;;;2.83;;
15982;SDS011;14442;50.196;8.096;2023-01-26T12:11:12;4.93;;;2.73;;
15982;SDS011;14442;50.196;8.096;2023-01-26T12:16:53;9.37;;;3.10;;
15982;SDS011;14442;50.196;8.096;2023-01-26T12:19:30;4.70;;;2.33;;
15982;SDS011;14442;50.196;8.096;2023-01-26T12:22:19;4.50;;;1.90;;
15982;SDS011;14442;50.196;8.096;2023-01-26T12:24:53;4.20;;;2.00;;
15982;SDS011;14442;50.196;8.096;2023-01-26T12:27:28;3.07;;;1.90;;
15982;SDS011;14442;50.196;8.096;2023-01-26T12:30:01;10.60;;;2.07;;
15982;SDS011;14442;50.196;8.096;2023-01-26T12:32:33;7.50;;;2.10;;
15982;SDS011;14442;50.196;8.096;2023-01-26T12:35:00;4.10;;;2.20;;
15982;SDS011;14442;50.196;8.096;2023-01-26T12:37:32;5.43;;;1.83;;
15982;SDS011;14442;50.196;8.096;2023-01-26T12:40:13;4.83;;;2.20;;
15982;SDS011;14442;50.196;8.096;2023-01-26T12:42:51;6.03;;;2.27;;
15982;SDS011;14442;50.196;8.096;2023-01-26T12:45:29;6.20;;;2.50;;
15982;SDS011;14442;50.196;8.096;2023-01-26T12:48:01;5.63;;;2.10;;
15982;SDS011;14442;50.196;8.096;2023-01-26T12:50:37;7.03;;;1.93;;
15982;SDS011;14442;50.196;8.096;2023-01-26T12:53:10;4.90;;;1.87;;
15982;SDS011;14442;50.196;8.096;2023-01-26T12:55:41;3.10;;;1.80;;
15982;SDS011;14442;50.196;8.096;2023-01-26T12:58:11;4.73;;;2.10;;
15982;SDS011;14442;50.196;8.096;2023-01-26T13:00:49;5.97;;;2.13;;
15982;SDS011;14442;50.196;8.096;2023-01-26T13:03:19;11.77;;;2.50;;
15982;SDS011;14442;50.196;8.096;2023-01-26T13:05:53;4.40;;;1.80;;
15982;SDS011;14442;50.196;8.096;2023-01-26T13:08:40;4.87;;;1.67;;
15982;SDS011;14442;50.196;8.096;2023-01-26T13:16:50;5.80;;;2.23;;
15982;SDS011;14442;50.196;8.096;2023-01-26T13:19:33;13.00;;;2.37;;
15982;SDS011;14442;50.196;8.096;2023-01-26T13:22:01;7.27;;;2.20;;
15982;SDS011;14442;50.196;8.096;2023-01-26T13:24:41;7.13;;;2.03;;
15982;SDS011;14442;50.196;8.096;2023-01-26T13:27:29;12.03;;;2.30;;
15982;SDS011;14442;50.196;8.096;2023-01-26T13:29:59;12.37;;;2.00;;
15982;SDS011;14442;50.196;8.096;2023-01-26T13:35:27;11.23;;;1.90;;
15982;SDS011;14442;50.196;8.096;2023-01-26T13:37:56;5.60;;;2.10;;
15982;SDS011;14442;50.196;8.096;2023-01-26T13:40:31;3.63;;;2.17;;
15982;SDS011;14442;50.196;8.096;2023-01-26T13:43:02;10.90;;;2.20;;
15982;SDS011;14442;50.196;8.096;2023-01-26T13:45:34;4.83;;;2.40;;
15982;SDS011;14442;50.196;8.096;2023-01-26T13:48:08;5.23;;;2.23;;
15982;SDS011;14442;50.196;8.096;2023-01-26T13:50:40;13.13;;;2.80;;
15982;SDS011;14442;50.196;8.096;2023-01-26T13:53:28;9.57;;;2.67;;
15982;SDS011;14442;50.196;8.096;2023-01-26T13:56:02;6.60;;;2.27;;
15982;SDS011;14442;50.196;8.096;2023-01-26T13:58:30;11.13;;;2.60;;
15982;SDS011;14442;50.196;8.096;2023-01-26T14:00:58;6.83;;;2.40;;
15982;SDS011;14442;50.196;8.096;2023-01-26T14:03:26;11.83;;;3.43;;
15982;SDS011;14442;50.196;8.096;2023-01-26T14:05:54;4.77;;;2.47;;
15982;SDS011;14442;50.196;8.096;2023-01-26T14:08:22;8.27;;;2.67;;
15982;SDS011;14442;50.196;8.096;2023-01-26T14:10:49;4.87;;;2.70;;
15982;SDS011;14442;50.196;8.096;2023-01-26T14:13:21;4.43;;;2.57;;
15982;SDS011;14442;50.196;8.096;2023-01-26T14:15:55;4.97;;;2.13;;
15982;SDS011;14442;50.196;8.096;2023-01-26T14:18:23;9.43;;;2.90;;
15982;SDS011;14442;50.196;8.096;2023-01-26T14:20:56;5.10;;;2.33;;
15982;SDS011;14442;50.196;8.096;2023-01-26T14:23:25;5.43;;;2.20;;
15982;SDS011;14442;50.196;8.096;2023-01-26T14:25:55;3.00;;;2.63;;
15982;SDS011;14442;50.196;8.096;2023-01-26T14:28:26;3.83;;;2.30;;
15982;SDS011;14442;50.196;8.096;2023-01-26T14:30:56;8.57;;;3.17;;
15982;SDS011;14442;50.196;8.096;2023-01-26T14:33:26;4.33;;;2.30;;
15982;SDS011;14442;50.196;8.096;2023-01-26T14:35:54;4.53;;;2.83;;
15982;SDS011;14442;50.196;8.096;2023-01-26T14:38:22;4.67;;;2.63;;
15982;SDS011;14442;50.196;8.096;2023-01-26T14:40:53;4.43;;;2.53;;
15982;SDS011;14442;50.196;8.096;2023-01-26T14:43:20;2.63;;;2.37;;
15982;SDS011;14442;50.196;8.096;2023-01-26T14:45:50;4.63;;;2.77;;
15982;SDS011;14442;50.196;8.096;2023-01-26T14:48:24;6.00;;;3.10;;
15982;SDS011;14442;50.196;8.096;2023-01-26T14:50:54;3.97;;;2.27;;
15982;SDS011;14442;50.196;8.096;2023-01-26T14:53:22;7.20;;;2.87;;
15982;SDS011;14442;50.196;8.096;2023-01-26T14:55:50;7.20;;;2.50;;
15982;SDS011;14442;50.196;8.096;2023-01-26T14:58:19;5.90;;;3.10;;
15982;SDS011;14442;50.196;8.096;2023-01-26T15:00:50;4.73;;;2.80;;
15982;SDS011;14442;50.196;8.096;2023-01-26T15:03:21;2.90;;;2.60;;
15982;SDS011;14442;50.196;8.096;2023-01-26T15:06:02;5.67;;;2.90;;
15982;SDS011;14442;50.196;8.096;2023-01-26T15:08:31;6.33;;;3.20;;
15982;SDS011;14442;50.196;8.096;2023-01-26T15:10:59;5.80;;;3.43;;
15982;SDS011;14442;50.196;8.096;2023-01-26T15:13:40;6.30;;;2.87;;
15982;SDS011;14442;50.196;8.096;2023-01-26T15:16:13;5.23;;;2.90;;
15982;SDS011;14442;50.196;8.096;2023-01-26T15:18:41;4.87;;;3.10;;
15982;SDS011;14442;50.196;8.096;2023-01-26T15:21:11;6.63;;;2.93;;